sensor_id;sensor_type;location;lat;lon;timestamp;temperature;humidity
43015;DHT22;28637;50.554;7.032;2023-02-05T00:02:34;7.00;99.90
43015;DHT22;28637;50.554;7.032;2023-02-05T00:07:35;7.20;99.90
43015;DHT22;28637;50.554;7.032;2023-02-05T00:12:36;7.30;99.90
43015;DHT22;28637;50.554;7.032;2023-02-05T00:17:37;7.40;99.90
43015;DHT22;28637;50.554;7.032;2023-02-05T00:22:38;7.30;99.90
43015;DHT22;28637;50.554;7.032;2023-02-05T00:27:39;7.20;99.90
43015;DHT22;28637;50.554;7.032;2023-02-05T00:32:40;7.00;99.90
43015;DHT22;28637;50.554;7.032;2023-02-05T00:37:40;7.00;99.90
43015;DHT22;28637;50.554;7.032;2023-02-05T00:42:41;7.10;99.90
43015;DHT22;28637;50.554;7.032;2023-02-05T00:47:42;7.10;99.90
43015;DHT22;28637;50.554;7.032;2023-02-05T00:52:42;6.90;99.90
43015;DHT22;28637;50.554;7.032;2023-02-05T00:57:43;6.70;99.90
43015;DHT22;28637;50.554;7.032;2023-02-05T01:02:43;6.80;99.90
43015;DHT22;28637;50.554;7.032;2023-02-05T01:07:44;6.80;99.90
43015;DHT22;28637;50.554;7.032;2023-02-05T01:12:47;6.80;99.90
43015;DHT22;28637;50.554;7.032;2023-02-05T01:17:48;6.90;99.90
43015;DHT22;28637;50.554;7.032;2023-02-05T01:22:49;7.00;99.90
43015;DHT22;28637;50.554;7.032;2023-02-05T01:27:50;7.10;99.90
43015;DHT22;28637;50.554;7.032;2023-02-05T01:32:50;7.20;99.90
43015;DHT22;28637;50.554;7.032;2023-02-05T01:37:51;7.20;99.90
43015;DHT22;28637;50.554;7.032;2023-02-05T01:42:51;7.20;99.90
43015;DHT22;28637;50.554;7.032;2023-02-05T01:47:57;7.10;99.90
43015;DHT22;28637;50.554;7.032;2023-02-05T01:53:05;7.20;99.90
43015;DHT22;28637;50.554;7.032;2023-02-05T01:58:06;7.10;99.90
43015;DHT22;28637;50.554;7.032;2023-02-05T02:03:10;7.10;99.90
43015;DHT22;28637;50.554;7.032;2023-02-05T02:08:12;7.10;99.90
43015;DHT22;28637;50.554;7.032;2023-02-05T02:13:13;7.10;99.90
43015;DHT22;28637;50.554;7.032;2023-02-05T02:18:16;7.00;99.90
43015;DHT22;28637;50.554;7.032;2023-02-05T02:23:36;7.10;99.90
43015;DHT22;28637;50.554;7.032;2023-02-05T02:28:52;7.00;99.90
43015;DHT22;28637;50.554;7.032;2023-02-05T02:39:18;7.00;99.90
43015;DHT22;28637;50.554;7.032;2023-02-05T02:49:37;7.20;99.90
43015;DHT22;28637;50.554;7.032;2023-02-05T02:54:40;7.40;99.90
43015;DHT22;28637;50.554;7.032;2023-02-05T02:59:45;7.40;99.90
43015;DHT22;28637;50.554;7.032;2023-02-05T03:04:55;7.50;99.90
43015;DHT22;28637;50.554;7.032;2023-02-05T03:10:07;7.50;99.90
43015;DHT22;28637;50.554;7.032;2023-02-05T03:15:11;7.50;99.90
43015;DHT22;28637;50.554;7.032;2023-02-05T03:20:27;7.60;99.90
43015;DHT22;28637;50.554;7.032;2023-02-05T03:25:29;7.60;99.90
43015;DHT22;28637;50.554;7.032;2023-02-05T03:30:39;7.50;99.90
43015;DHT22;28637;50.554;7.032;2023-02-05T03:35:51;7.50;99.90
43015;DHT22;28637;50.554;7.032;2023-02-05T03:46:42;7.40;99.90
43015;DHT22;28637;50.554;7.032;2023-02-05T03:52:01;7.40;99.90
43015;DHT22;28637;50.554;7.032;2023-02-05T03:57:21;7.40;99.90
43015;DHT22;28637;50.554;7.032;2023-02-05T04:02:24;7.40;99.90
43015;DHT22;28637;50.554;7.032;2023-02-05T04:07:25;7.40;99.90
43015;DHT22;28637;50.554;7.032;2023-02-05T04:12:26;7.40;99.90
43015;DHT22;28637;50.554;7.032;2023-02-05T04:17:26;7.40;99.90
43015;DHT22;28637;50.554;7.032;2023-02-05T04:22:27;7.40;99.90
43015;DHT22;28637;50.554;7.032;2023-02-05T04:27:28;7.30;99.90
43015;DHT22;28637;50.554;7.032;2023-02-05T04:32:29;7.40;99.90
43015;DHT22;28637;50.554;7.032;2023-02-05T04:37:29;7.40;99.90
43015;DHT22;28637;50.554;7.032;2023-02-05T04:42:30;7.40;99.90
43015;DHT22;28637;50.554;7.032;2023-02-05T04:47:31;7.50;99.90
43015;DHT22;28637;50.554;7.032;2023-02-05T04:52:32;7.40;99.90
43015;DHT22;28637;50.554;7.032;2023-02-05T04:57:32;7.30;99.90
43015;DHT22;28637;50.554;7.032;2023-02-05T05:02:33;7.30;99.90
43015;DHT22;28637;50.554;7.032;2023-02-05T05:07:34;7.30;99.90
43015;DHT22;28637;50.554;7.032;2023-02-05T05:12:35;7.20;99.90
43015;DHT22;28637;50.554;7.032;2023-02-05T05:17:36;7.20;99.90
43015;DHT22;28637;50.554;7.032;2023-02-05T05:22:37;7.20;99.90
43015;DHT22;28637;50.554;7.032;2023-02-05T05:27:37;7.20;99.90
43015;DHT22;28637;50.554;7.032;2023-02-05T05:32:38;7.20;99.90
43015;DHT22;28637;50.554;7.032;2023-02-05T05:37:38;7.30;99.90
43015;DHT22;28637;50.554;7.032;2023-02-05T05:42:39;7.20;99.90
43015;DHT22;28637;50.554;7.032;2023-02-05T05:47:58;7.30;99.90
43015;DHT22;28637;50.554;7.032;2023-02-05T05:52:59;7.40;99.90
43015;DHT22;28637;50.554;7.032;2023-02-05T05:57:59;7.30;99.90
43015;DHT22;28637;50.554;7.032;2023-02-05T06:03:00;7.30;99.90
43015;DHT22;28637;50.554;7.032;2023-02-05T06:08:01;7.40;99.90
43015;DHT22;28637;50.554;7.032;2023-02-05T06:13:02;7.40;99.90
43015;DHT22;28637;50.554;7.032;2023-02-05T06:18:02;7.20;99.90
43015;DHT22;28637;50.554;7.032;2023-02-05T06:23:03;7.10;99.90
43015;DHT22;28637;50.554;7.032;2023-02-05T06:28:04;7.00;99.90
43015;DHT22;28637;50.554;7.032;2023-02-05T06:33:05;6.90;99.90
43015;DHT22;28637;50.554;7.032;2023-02-05T06:38:06;6.90;99.90
43015;DHT22;28637;50.554;7.032;2023-02-05T06:43:07;6.90;99.90
43015;DHT22;28637;50.554;7.032;2023-02-05T06:48:07;6.90;99.90
43015;DHT22;28637;50.554;7.032;2023-02-05T06:53:08;6.80;99.90
43015;DHT22;28637;50.554;7.032;2023-02-05T06:58:08;6.90;99.90
43015;DHT22;28637;50.554;7.032;2023-02-05T07:03:09;6.90;99.90
43015;DHT22;28637;50.554;7.032;2023-02-05T07:08:10;6.90;99.90
43015;DHT22;28637;50.554;7.032;2023-02-05T07:13:10;7.00;99.90
43015;DHT22;28637;50.554;7.032;2023-02-05T07:18:11;7.00;99.90
43015;DHT22;28637;50.554;7.032;2023-02-05T07:23:12;7.00;99.90
43015;DHT22;28637;50.554;7.032;2023-02-05T07:28:13;7.10;99.90
43015;DHT22;28637;50.554;7.032;2023-02-05T07:33:13;7.20;99.90
43015;DHT22;28637;50.554;7.032;2023-02-05T07:38:14;7.20;99.90
43015;DHT22;28637;50.554;7.032;2023-02-05T07:43:15;7.20;99.90
43015;DHT22;28637;50.554;7.032;2023-02-05T07:48:15;7.20;99.90
43015;DHT22;28637;50.554;7.032;2023-02-05T07:53:16;7.20;99.90
43015;DHT22;28637;50.554;7.032;2023-02-05T07:58:17;7.20;99.90
43015;DHT22;28637;50.554;7.032;2023-02-05T08:03:18;7.20;99.90
43015;DHT22;28637;50.554;7.032;2023-02-05T08:08:19;7.20;99.90
43015;DHT22;28637;50.554;7.032;2023-02-05T08:13:19;7.20;99.90
43015;DHT22;28637;50.554;7.032;2023-02-05T08:18:20;7.20;99.90
43015;DHT22;28637;50.554;7.032;2023-02-05T08:23:21;7.20;99.90
43015;DHT22;28637;50.554;7.032;2023-02-05T08:28:23;7.10;99.90
43015;DHT22;28637;50.554;7.032;2023-02-05T08:33:24;7.00;99.90
43015;DHT22;28637;50.554;7.032;2023-02-05T08:38:25;7.00;99.90
43015;DHT22;28637;50.554;7.032;2023-02-05T08:43:25;7.00;99.90
43015;DHT22;28637;50.554;7.032;2023-02-05T08:48:26;7.00;99.90
43015;DHT22;28637;50.554;7.032;2023-02-05T08:53:27;7.00;99.90
43015;DHT22;28637;50.554;7.032;2023-02-05T08:58:27;6.90;99.90
43015;DHT22;28637;50.554;7.032;2023-02-05T09:03:29;7.00;99.90
43015;DHT22;28637;50.554;7.032;2023-02-05T09:08:30;6.90;99.90
43015;DHT22;28637;50.554;7.032;2023-02-05T09:13:30;6.80;99.90
43015;DHT22;28637;50.554;7.032;2023-02-05T09:18:31;6.80;99.90
43015;DHT22;28637;50.554;7.032;2023-02-05T09:23:32;6.80;99.90
43015;DHT22;28637;50.554;7.032;2023-02-05T09:28:33;6.70;99.90
43015;DHT22;28637;50.554;7.032;2023-02-05T09:33:34;6.60;99.90
43015;DHT22;28637;50.554;7.032;2023-02-05T09:38:35;6.60;99.90
43015;DHT22;28637;50.554;7.032;2023-02-05T09:48:57;6.70;99.90
43015;DHT22;28637;50.554;7.032;2023-02-05T09:54:11;6.50;99.90
43015;DHT22;28637;50.554;7.032;2023-02-05T09:59:21;6.30;99.90
43015;DHT22;28637;50.554;7.032;2023-02-05T10:04:22;6.30;99.90
43015;DHT22;28637;50.554;7.032;2023-02-05T10:14:53;6.20;99.90
43015;DHT22;28637;50.554;7.032;2023-02-05T10:20:17;6.00;99.90
43015;DHT22;28637;50.554;7.032;2023-02-05T10:25:56;5.90;99.90
43015;DHT22;28637;50.554;7.032;2023-02-05T10:31:01;5.90;99.90
43015;DHT22;28637;50.554;7.032;2023-02-05T10:36:05;5.80;99.90
43015;DHT22;28637;50.554;7.032;2023-02-05T10:46:16;5.80;99.90
43015;DHT22;28637;50.554;7.032;2023-02-05T10:51:29;5.90;99.90
43015;DHT22;28637;50.554;7.032;2023-02-05T10:56:31;5.90;99.90
43015;DHT22;28637;50.554;7.032;2023-02-05T11:01:35;5.90;99.90
43015;DHT22;28637;50.554;7.032;2023-02-05T11:06:43;5.90;99.90
43015;DHT22;28637;50.554;7.032;2023-02-05T11:11:50;5.90;99.90
43015;DHT22;28637;50.554;7.032;2023-02-05T11:16:52;5.90;99.90
43015;DHT22;28637;50.554;7.032;2023-02-05T11:21:59;5.90;99.90
43015;DHT22;28637;50.554;7.032;2023-02-05T11:27:23;6.00;99.90
43015;DHT22;28637;50.554;7.032;2023-02-05T11:32:37;6.00;99.90
43015;DHT22;28637;50.554;7.032;2023-02-05T11:37:38;6.00;99.90
43015;DHT22;28637;50.554;7.032;2023-02-05T11:42:39;6.00;99.90
43015;DHT22;28637;50.554;7.032;2023-02-05T11:47:41;6.10;99.90
43015;DHT22;28637;50.554;7.032;2023-02-05T11:52:42;6.00;99.90
43015;DHT22;28637;50.554;7.032;2023-02-05T11:57:43;6.00;99.90
43015;DHT22;28637;50.554;7.032;2023-02-05T12:02:44;6.00;99.90
43015;DHT22;28637;50.554;7.032;2023-02-05T12:12:57;6.00;99.90
43015;DHT22;28637;50.554;7.032;2023-02-05T12:34:04;6.00;99.90
43015;DHT22;28637;50.554;7.032;2023-02-05T13:01:10;6.00;99.90
43015;DHT22;28637;50.554;7.032;2023-02-05T13:11:31;6.00;99.90
43015;DHT22;28637;50.554;7.032;2023-02-05T13:16:44;6.00;99.90
43015;DHT22;28637;50.554;7.032;2023-02-05T13:21:47;6.00;99.90
43015;DHT22;28637;50.554;7.032;2023-02-05T13:27:27;5.90;99.90
43015;DHT22;28637;50.554;7.032;2023-02-05T13:32:50;5.90;99.90
43015;DHT22;28637;50.554;7.032;2023-02-05T14:04:45;5.80;99.90
43015;DHT22;28637;50.554;7.032;2023-02-05T14:09:56;5.80;99.90
43015;DHT22;28637;50.554;7.032;2023-02-05T14:30:58;5.70;99.90
43015;DHT22;28637;50.554;7.032;2023-02-05T14:41:35;5.70;99.90
43015;DHT22;28637;50.554;7.032;2023-02-05T14:47:07;5.80;99.90
43015;DHT22;28637;50.554;7.032;2023-02-05T14:52:32;5.70;99.90
43015;DHT22;28637;50.554;7.032;2023-02-05T14:57:53;5.70;99.90
43015;DHT22;28637;50.554;7.032;2023-02-05T15:13:19;5.70;99.90
43015;DHT22;28637;50.554;7.032;2023-02-05T15:18:27;5.60;99.90
43015;DHT22;28637;50.554;7.032;2023-02-05T15:34:18;5.60;99.90
43015;DHT22;28637;50.554;7.032;2023-02-05T15:39:29;5.70;99.90
43015;DHT22;28637;50.554;7.032;2023-02-05T15:44:34;5.80;99.90
43015;DHT22;28637;50.554;7.032;2023-02-05T15:49:39;5.80;99.90
43015;DHT22;28637;50.554;7.032;2023-02-05T15:54:42;5.80;99.90
43015;DHT22;28637;50.554;7.032;2023-02-05T15:59:42;5.80;99.90
43015;DHT22;28637;50.554;7.032;2023-02-05T16:04:43;5.80;99.90
43015;DHT22;28637;50.554;7.032;2023-02-05T16:09:46;5.80;99.90
43015;DHT22;28637;50.554;7.032;2023-02-05T16:15:17;5.80;99.90
43015;DHT22;28637;50.554;7.032;2023-02-05T16:20:28;5.90;99.90
43015;DHT22;28637;50.554;7.032;2023-02-05T16:25:34;5.80;99.90
43015;DHT22;28637;50.554;7.032;2023-02-05T16:30:39;5.80;99.90
43015;DHT22;28637;50.554;7.032;2023-02-05T16:35:46;5.80;99.90
43015;DHT22;28637;50.554;7.032;2023-02-05T16:40:50;5.90;99.90
43015;DHT22;28637;50.554;7.032;2023-02-05T16:51:05;5.90;99.90
43015;DHT22;28637;50.554;7.032;2023-02-05T16:56:10;6.00;99.90
43015;DHT22;28637;50.554;7.032;2023-02-05T17:01:12;6.00;99.90
43015;DHT22;28637;50.554;7.032;2023-02-05T17:06:15;6.10;99.90
43015;DHT22;28637;50.554;7.032;2023-02-05T17:11:36;6.10;99.90
43015;DHT22;28637;50.554;7.032;2023-02-05T17:16:41;6.20;99.90
43015;DHT22;28637;50.554;7.032;2023-02-05T17:21:42;6.20;99.90
43015;DHT22;28637;50.554;7.032;2023-02-05T17:26:42;6.20;99.90
43015;DHT22;28637;50.554;7.032;2023-02-05T17:31:43;6.20;99.90
43015;DHT22;28637;50.554;7.032;2023-02-05T17:36:44;6.50;99.90
43015;DHT22;28637;50.554;7.032;2023-02-05T17:41:46;6.60;99.90
43015;DHT22;28637;50.554;7.032;2023-02-05T17:47:07;6.50;99.90
43015;DHT22;28637;50.554;7.032;2023-02-05T17:52:09;6.50;99.90
43015;DHT22;28637;50.554;7.032;2023-02-05T17:57:14;6.50;99.90
43015;DHT22;28637;50.554;7.032;2023-02-05T18:02:15;6.40;99.90
43015;DHT22;28637;50.554;7.032;2023-02-05T18:12:26;6.30;99.90
43015;DHT22;28637;50.554;7.032;2023-02-05T18:17:27;6.30;99.90
43015;DHT22;28637;50.554;7.032;2023-02-05T18:22:28;6.20;99.90
43015;DHT22;28637;50.554;7.032;2023-02-05T18:27:28;6.20;99.90
43015;DHT22;28637;50.554;7.032;2023-02-05T18:32:30;6.30;99.90
43015;DHT22;28637;50.554;7.032;2023-02-05T18:37:30;6.30;99.90
43015;DHT22;28637;50.554;7.032;2023-02-05T18:42:31;6.40;99.90
43015;DHT22;28637;50.554;7.032;2023-02-05T18:47:32;6.40;99.90
43015;DHT22;28637;50.554;7.032;2023-02-05T18:52:32;6.40;99.90
43015;DHT22;28637;50.554;7.032;2023-02-05T18:57:33;6.40;99.90
43015;DHT22;28637;50.554;7.032;2023-02-05T19:02:34;6.30;99.90
43015;DHT22;28637;50.554;7.032;2023-02-05T19:07:35;6.20;99.90
43015;DHT22;28637;50.554;7.032;2023-02-05T19:12:35;6.20;99.90
43015;DHT22;28637;50.554;7.032;2023-02-05T19:17:36;6.20;99.90
43015;DHT22;28637;50.554;7.032;2023-02-05T19:22:36;6.20;99.90
43015;DHT22;28637;50.554;7.032;2023-02-05T19:27:37;6.20;99.90
43015;DHT22;28637;50.554;7.032;2023-02-05T19:32:38;6.10;99.90
43015;DHT22;28637;50.554;7.032;2023-02-05T19:37:38;6.10;99.90
43015;DHT22;28637;50.554;7.032;2023-02-05T19:42:39;6.10;99.90
43015;DHT22;28637;50.554;7.032;2023-02-05T19:47:40;6.10;99.90
43015;DHT22;28637;50.554;7.032;2023-02-05T19:52:41;6.10;99.90
43015;DHT22;28637;50.554;7.032;2023-02-05T19:57:43;6.10;99.90
43015;DHT22;28637;50.554;7.032;2023-02-05T20:02:44;6.10;99.90
43015;DHT22;28637;50.554;7.032;2023-02-05T20:07:48;6.20;99.90
43015;DHT22;28637;50.554;7.032;2023-02-05T20:12:49;6.40;99.90
43015;DHT22;28637;50.554;7.032;2023-02-05T20:17:50;6.70;99.90
43015;DHT22;28637;50.554;7.032;2023-02-05T20:22:51;6.70;99.90
43015;DHT22;28637;50.554;7.032;2023-02-05T20:27:53;6.50;99.90
43015;DHT22;28637;50.554;7.032;2023-02-05T20:32:54;6.40;99.90
43015;DHT22;28637;50.554;7.032;2023-02-05T20:37:54;6.40;99.90
43015;DHT22;28637;50.554;7.032;2023-02-05T20:42:55;6.30;99.90
43015;DHT22;28637;50.554;7.032;2023-02-05T20:47:56;6.20;99.90
43015;DHT22;28637;50.554;7.032;2023-02-05T20:52:56;6.10;99.90
43015;DHT22;28637;50.554;7.032;2023-02-05T20:57:59;6.00;99.90
43015;DHT22;28637;50.554;7.032;2023-02-05T21:02:59;6.00;99.90
43015;DHT22;28637;50.554;7.032;2023-02-05T21:08:00;6.00;99.90
43015;DHT22;28637;50.554;7.032;2023-02-05T21:13:01;5.90;99.90
43015;DHT22;28637;50.554;7.032;2023-02-05T21:18:01;5.90;99.90
43015;DHT22;28637;50.554;7.032;2023-02-05T21:23:02;5.90;99.90
43015;DHT22;28637;50.554;7.032;2023-02-05T21:28:03;5.90;99.90
43015;DHT22;28637;50.554;7.032;2023-02-05T21:33:04;5.90;99.90
43015;DHT22;28637;50.554;7.032;2023-02-05T21:38:05;5.90;99.90
43015;DHT22;28637;50.554;7.032;2023-02-05T21:43:05;5.80;99.90
43015;DHT22;28637;50.554;7.032;2023-02-05T21:48:06;5.80;99.90
43015;DHT22;28637;50.554;7.032;2023-02-05T21:53:07;5.80;99.90
43015;DHT22;28637;50.554;7.032;2023-02-05T21:58:07;5.80;99.90
43015;DHT22;28637;50.554;7.032;2023-02-05T22:03:08;5.80;99.90
43015;DHT22;28637;50.554;7.032;2023-02-05T22:08:09;5.80;99.90
43015;DHT22;28637;50.554;7.032;2023-02-05T22:13:09;5.80;99.90
43015;DHT22;28637;50.554;7.032;2023-02-05T22:18:10;5.80;99.90
43015;DHT22;28637;50.554;7.032;2023-02-05T22:23:11;5.80;99.90
43015;DHT22;28637;50.554;7.032;2023-02-05T22:28:11;5.70;99.90
43015;DHT22;28637;50.554;7.032;2023-02-05T22:33:12;5.70;99.90
43015;DHT22;28637;50.554;7.032;2023-02-05T22:38:13;5.70;99.90
43015;DHT22;28637;50.554;7.032;2023-02-05T22:43:13;5.60;99.90
43015;DHT22;28637;50.554;7.032;2023-02-05T22:48:14;5.60;99.90
43015;DHT22;28637;50.554;7.032;2023-02-05T22:53:15;5.60;99.90
43015;DHT22;28637;50.554;7.032;2023-02-05T22:58:15;5.60;99.90
43015;DHT22;28637;50.554;7.032;2023-02-05T23:03:16;5.60;99.90
43015;DHT22;28637;50.554;7.032;2023-02-05T23:08:16;5.60;99.90
43015;DHT22;28637;50.554;7.032;2023-02-05T23:13:17;5.60;99.90
43015;DHT22;28637;50.554;7.032;2023-02-05T23:18:18;5.60;99.90
43015;DHT22;28637;50.554;7.032;2023-02-05T23:23:18;5.50;99.90
43015;DHT22;28637;50.554;7.032;2023-02-05T23:28:20;5.50;99.90
43015;DHT22;28637;50.554;7.032;2023-02-05T23:33:23;5.50;99.90
43015;DHT22;28637;50.554;7.032;2023-02-05T23:38:24;5.50;99.90
43015;DHT22;28637;50.554;7.032;2023-02-05T23:43:25;5.50;99.90
43015;DHT22;28637;50.554;7.032;2023-02-05T23:48:26;5.60;99.90
43015;DHT22;28637;50.554;7.032;2023-02-05T23:53:26;5.60;99.90
43015;DHT22;28637;50.554;7.032;2023-02-05T23:58:27;5.60;99.90
